This is the latest recevied weather packets stored in our database for station/object YD2APR-13. If no packets are shown the sender has not sent any weather packets the latest 10 day(s).
| Time | Temp. | Humidity | Pressure | Rain* | Wind** | Luminosity | Snow |
|---|---|---|---|---|---|---|---|
| 1778050538 | 33.89° C | 49% | 1013.2 hPa | - | - | - | - |
| 1778049938 | 34.44° C | 50% | 1013.2 hPa | - | - | - | - |
| 1778049338 | 33.89° C | 51% | 1013.4 hPa | - | - | - | - |
| 1778048738 | 34.44° C | 50% | 1013.5 hPa | - | - | - | - |
| 1778048138 | 34.44° C | 50% | 1013.6 hPa | - | - | - | - |
| 1778047538 | 34.44° C | 50% | 1013.6 hPa | - | - | - | - |
| 1778046938 | 33.33° C | 52% | 1013.6 hPa | - | - | - | - |
| 1778046338 | 33.89° C | 52% | 1013.8 hPa | - | - | - | - |
| 1778045738 | 32.78° C | 54% | 1014 hPa | - | - | - | - |
| 1778045138 | 32.78° C | 55% | 1014.1 hPa | - | - | - | - |
| 1778044538 | 33.33° C | 55% | 1014.3 hPa | - | - | - | - |
| 1778043938 | 32.22° C | 57% | 1014.4 hPa | - | - | - | - |
| 1778043338 | 31.11° C | 60% | 1014.5 hPa | - | - | - | - |
| 1778042738 | 30.56° C | 60% | 1014.6 hPa | - | - | - | - |
| 1778042138 | 30° C | 61% | 1014.7 hPa | - | - | - | - |
| 1778041538 | 32.22° C | 56% | 1014.9 hPa | - | - | - | - |
| 1778040938 | 32.78° C | 55% | 1015.1 hPa | - | - | - | - |
| 1778040338 | 32.22° C | 55% | 1015.3 hPa | - | - | - | - |
| 1778039738 | 32.22° C | 56% | 1015.5 hPa | - | - | - | - |
| 1778039138 | 30.56° C | 59% | 1015.6 hPa | - | - | - | - |
| 1778038538 | 30.56° C | 60% | 1015.7 hPa | - | - | - | - |
| 1778037938 | 31.11° C | 60% | 1016 hPa | - | - | - | - |
| 1778037338 | 31.11° C | 59% | 1016.1 hPa | - | - | - | - |
| 1778036738 | 31.11° C | 59% | 1016.2 hPa | - | - | - | - |
| 1778036138 | 30° C | 62% | 1016.2 hPa | - | - | - | - |
* Rain since midnight (hover to see other rain measurements)
** Current wind speed in m/s (hover to see current wind gust speed)